Parowan, Utah
Current Conditions -  °F | °C
As of 12:53 PM on Friday 28 Nov 2014 (Local Time) from KCDC Reporting Station
Clear Clear  
Wind Chill: 63°   Ceiling: Unl
Heat Index: 63°   Visibility: 10mi
Dew Point: 11°   Wind: 17mph
Humidity: 13%   Direction: 230°SW
Pressure: 30.06"   Gusts: 24mph
Location:  37.84°N, 112.83°W
Report Text: KCDC 281953Z AUTO 23015G21KT 10SM CLR 17/M12 A3006 RMK AO2 SLP141 T01721117
Loading
Personal Weather Stations






























Interactive Weather Map New forecast layout! Learn more

10-Day Weather Forecast

Advertisements
Track Severe Weather on mobile